KSWW

Avenger Field Airport

Sweetwater, Texas, USA
METAR KSWW 141155Z AUTO 32017G21KT 10SM CLR 03/M08 A3015 RMK AO2 70073 T00271083 10047 20027
Observed Flight Rules
Dec-14 @ 11:55 UTC (28 minutes ago) Visual Flight Rules
Wind Visibility Clouds
320° at 17 knots
 Gusting to 21 knots
10 miles
  • Clear skies
Temperatures Readings
Current 3°C / 37°F
Dewpoint -8°C / 18°F
Humidity 45%
Altimeter 30.15" Hg
Pressure 1021 hPa
Elevation 727
METAR KSWW 141155Z AUTO 32017G21KT 10SM CLR 03/M08 A3015 RMK AO2 70073 T00271083 10047 20027
Observed Flight Rules
Dec-14 @ 11:55 UTC
(28 minutes ago)
VFR
Wind Visibility
320° at 17 knots
 Gusting to 21 knots
10 miles
Clouds
  • Clear skies
Temperature Dewpoint
3°C / 37°F -8°C / 18°F
Humidity Altimeter Pressure
45% 30.15" Hg 1021 hPa